Time;durP1;ratioP1;P1;durP2;ratioP2;P2;SDS_P1;SDS_P2;PMS_P1;PMS_P2;Temp;Humidity;BMP_temperature;BMP_pressure;BME280_temperature;BME280_humidity;BME280_pressure;Samples;Min_cycle;Max_cycle;Signal;HPM_P1;HPM_P2
2023/12/27 00:01:18;;;;;;;5.95;2.47;;;3.50;71.10;;;;;;5067134;28;20490;-71
2023/12/27 00:03:44;;;;;;;6.68;3.05;;;3.50;71.30;;;;;;5071416;28;20104;-71
2023/12/27 00:06:10;;;;;;;12.38;5.80;;;3.50;71.30;;;;;;5068586;28;20045;-72
2023/12/27 00:08:37;;;;;;;17.85;7.13;;;3.50;71.50;;;;;;5071983;28;20052;-70
2023/12/27 00:11:03;;;;;;;7.38;4.95;;;3.40;72.10;;;;;;5069914;28;20037;-70
2023/12/27 00:13:29;;;;;;;;;;;3.40;71.20;;;;;;5072279;28;20430;-70
2023/12/27 00:15:55;;;;;;;9.07;5.18;;;3.40;70.90;;;;;;5070318;28;20007;-70
2023/12/27 00:18:21;;;;;;;2.97;2.00;;;3.40;70.80;;;;;;5066384;28;20047;-70
2023/12/27 00:20:49;;;;;;;4.28;2.80;;;3.30;70.80;;;;;;5052492;28;20119;-71
2023/12/27 00:23:15;;;;;;;6.57;4.13;;;3.30;71.10;;;;;;5070505;28;20047;-71
2023/12/27 00:25:41;;;;;;;8.55;4.88;;;3.30;71.10;;;;;;5073145;28;20021;-71
2023/12/27 00:28:07;;;;;;;7.95;4.47;;;3.30;71.10;;;;;;5075578;28;20040;-70
2023/12/27 00:30:34;;;;;;;5.65;2.80;;;3.30;71.10;;;;;;5072603;28;20517;-70
2023/12/27 00:33:00;;;;;;;3.72;1.80;;;3.30;71.30;;;;;;5070131;28;20032;-70
2023/12/27 00:35:26;;;;;;;9.65;5.70;;;3.20;71.30;;;;;;5074154;28;20039;-70
2023/12/27 00:37:52;;;;;;;5.35;3.42;;;3.20;71.40;;;;;;5070178;28;20029;-70
2023/12/27 00:40:18;;;;;;;7.43;3.55;;;3.20;71.40;;;;;;5073337;28;20048;-71
2023/12/27 00:42:44;;;;;;;4.72;3.63;;;3.30;71.50;;;;;;5075229;28;20037;-70
2023/12/27 00:45:11;;;;;;;5.85;2.15;;;3.30;71.60;;;;;;5075321;28;20044;-70
2023/12/27 00:47:37;;;;;;;5.40;1.80;;;3.30;71.00;;;;;;5074088;28;20056;-71
2023/12/27 00:50:03;;;;;;;5.20;2.72;;;3.30;71.70;;;;;;5075237;28;20044;-71
2023/12/27 00:52:29;;;;;;;;;;;3.30;71.20;;;;;;5073356;28;20044;-71
2023/12/27 00:54:55;;;;;;;5.70;2.85;;;3.20;71.60;;;;;;5072571;28;19927;-70
2023/12/27 00:57:21;;;;;;;2.95;1.92;;;3.20;71.60;;;;;;5073783;28;20028;-70
2023/12/27 00:59:47;;;;;;;2.42;1.88;;;3.20;71.70;;;;;;5075542;28;20448;-71
2023/12/27 01:02:13;;;;;;;5.80;3.45;;;3.20;71.80;;;;;;5073026;28;20040;-71
2023/12/27 01:04:39;;;;;;;4.20;2.70;;;3.20;71.70;;;;;;5056628;28;20208;-70
2023/12/27 01:07:05;;;;;;;2.53;1.50;;;3.20;71.70;;;;;;5074326;28;20512;-71
2023/12/27 01:09:31;;;;;;;4.55;2.53;;;3.20;71.70;;;;;;5074633;28;20041;-71
2023/12/27 01:11:57;;;;;;;4.22;2.05;;;3.20;71.90;;;;;;5071149;28;20048;-70
2023/12/27 01:14:23;;;;;;;5.00;3.15;;;3.20;71.90;;;;;;5073679;28;20118;-71
2023/12/27 01:16:49;;;;;;;5.47;3.70;;;3.20;71.70;;;;;;5073454;28;20037;-70
2023/12/27 01:19:15;;;;;;;8.27;4.68;;;3.10;71.50;;;;;;5073300;28;20054;-70
2023/12/27 01:21:41;;;;;;;5.18;3.25;;;3.10;71.50;;;;;;5072678;28;20040;-71
2023/12/27 01:24:07;;;;;;;6.80;3.90;;;3.10;71.60;;;;;;5069195;28;20037;-71
2023/12/27 01:26:33;;;;;;;9.35;5.10;;;3.10;71.50;;;;;;5072701;28;20032;-71
2023/12/27 01:28:59;;;;;;;10.05;4.13;;;3.10;71.20;;;;;;5069300;28;20554;-70
2023/12/27 01:31:25;;;;;;;7.35;3.53;;;3.00;71.20;;;;;;5073952;28;20082;-71
2023/12/27 01:33:51;;;;;;;3.60;2.70;;;3.00;71.00;;;;;;5073125;28;20398;-71
2023/12/27 01:36:20;;;;;;;3.00;1.65;;;3.00;71.10;;;;;;5072599;28;20040;-71
2023/12/27 01:38:46;;;;;;;5.40;2.03;;;3.00;71.00;;;;;;5073734;28;20365;-71
2023/12/27 01:41:12;;;;;;;7.72;3.20;;;3.00;71.40;;;;;;5072026;28;20040;-70
2023/12/27 01:43:38;;;;;;;5.40;2.97;;;3.00;71.50;;;;;;5043009;28;20033;-70
2023/12/27 01:46:04;;;;;;;3.03;1.58;;;3.00;71.60;;;;;;5074313;28;20086;-70
2023/12/27 01:48:30;;;;;;;;;;;2.90;70.90;;;;;;5073393;28;20086;-70
2023/12/27 01:50:59;;;;;;;2.15;1.25;;;3.00;71.50;;;;;;5055475;28;19916;-71
2023/12/27 01:53:26;;;;;;;4.00;1.40;;;2.90;71.60;;;;;;5072393;28;20039;-70
2023/12/27 01:55:53;;;;;;;2.92;1.73;;;2.90;71.20;;;;;;5052154;28;20544;-71
2023/12/27 01:58:19;;;;;;;3.92;2.05;;;2.90;71.60;;;;;;5068310;28;20033;-70
2023/12/27 02:03:31;;;;;;;6.22;2.67;;;2.80;71.30;;;;;;5073970;28;20054;-70
2023/12/27 02:05:58;;;;;;;5.00;2.55;;;2.80;71.10;;;;;;5073850;28;20070;-71
2023/12/27 02:08:25;;;;;;;4.75;2.60;;;2.70;71.10;;;;;;5072734;28;20036;-71
2023/12/27 02:10:51;;;;;;;7.32;3.75;;;2.70;71.40;;;;;;5070261;28;20397;-70
2023/12/27 02:13:19;;;;;;;5.65;2.17;;;2.70;71.30;;;;;;5071513;28;20043;-70
2023/12/27 02:15:46;;;;;;;4.20;2.28;;;2.70;71.50;;;;;;5068573;28;20430;-71
2023/12/27 02:18:13;;;;;;;3.95;1.92;;;2.70;71.60;;;;;;5068737;28;20236;-70
2023/12/27 02:20:40;;;;;;;4.43;1.75;;;2.70;71.30;;;;;;5072975;28;20032;-70
2023/12/27 02:23:11;;;;;;;3.65;1.65;;;2.70;71.80;;;;;;5055426;28;20469;-71
2023/12/27 02:25:37;;;;;;;2.60;1.38;;;2.70;72.10;;;;;;5071049;28;20041;-70
2023/12/27 02:28:04;;;;;;;3.55;1.75;;;2.70;72.30;;;;;;5054991;28;20120;-70
2023/12/27 02:30:33;;;;;;;;;;;2.70;71.60;;;;;;5067681;28;20029;-71
2023/12/27 02:32:59;;;;;;;2.80;1.90;;;2.70;72.20;;;;;;5052870;28;19959;-71
2023/12/27 02:35:25;;;;;;;2.15;1.52;;;2.70;72.10;;;;;;5073074;28;20037;-71
2023/12/27 02:37:51;;;;;;;3.67;2.58;;;2.70;72.10;;;;;;5071865;28;20037;-70
2023/12/27 02:40:17;;;;;;;5.97;2.45;;;2.70;72.20;;;;;;5054099;28;20630;-71
2023/12/27 02:42:43;;;;;;;1.88;1.38;;;2.70;72.40;;;;;;5071900;28;20036;-70
2023/12/27 02:45:09;;;;;;;3.20;1.75;;;2.60;72.00;;;;;;5072853;28;20044;-71
2023/12/27 02:47:35;;;;;;;3.72;2.47;;;2.60;71.70;;;;;;5072004;28;20025;-71
2023/12/27 02:50:03;;;;;;;3.25;2.42;;;2.50;71.60;;;;;;5067552;28;20503;-71
2023/12/27 02:52:29;;;;;;;6.40;3.17;;;2.50;71.80;;;;;;5054379;28;20555;-71
2023/12/27 02:54:55;;;;;;;;;;;2.50;71.50;;;;;;5072455;28;20132;-70
2023/12/27 02:57:22;;;;;;;4.18;2.45;;;2.50;71.00;;;;;;5088225;28;19969;-70
2023/12/27 02:59:48;;;;;;;2.50;1.35;;;2.30;70.30;;;;;;5072573;28;20037;-70
2023/12/27 03:02:14;;;;;;;4.63;2.00;;;2.30;71.30;;;;;;5053142;28;20040;-71
2023/12/27 03:04:40;;;;;;;2.78;1.65;;;2.40;71.10;;;;;;5057806;28;20036;-71
2023/12/27 03:07:07;;;;;;;5.60;3.38;;;2.30;71.10;;;;;;5060786;28;20102;-72
2023/12/27 03:09:33;;;;;;;2.15;1.52;;;2.30;71.20;;;;;;5071363;28;20094;-71
2023/12/27 03:12:00;;;;;;;4.47;2.75;;;2.30;71.50;;;;;;5053855;28;20040;-70
2023/12/27 03:14:26;;;;;;;6.40;3.67;;;2.30;71.70;;;;;;5071425;28;20040;-71
2023/12/27 03:16:52;;;;;;;3.00;1.80;;;2.30;71.50;;;;;;5070781;28;20032;-71
2023/12/27 03:19:18;;;;;;;4.80;3.05;;;2.30;71.40;;;;;;5066904;28;20036;-70
2023/12/27 03:21:44;;;;;;;2.85;2.03;;;2.30;71.50;;;;;;5070839;28;20375;-71
2023/12/27 03:24:10;;;;;;;2.53;1.65;;;2.20;71.30;;;;;;5070937;28;20075;-70
2023/12/27 03:26:36;;;;;;;4.72;2.72;;;2.20;71.30;;;;;;5072246;28;20032;-71
2023/12/27 03:29:02;;;;;;;0.95;0.73;;;2.20;71.40;;;;;;5072574;28;20497;-70
2023/12/27 03:31:29;;;;;;;2.70;1.15;;;2.20;71.40;;;;;;5070679;28;20055;-70
2023/12/27 03:33:58;;;;;;;3.05;2.13;;;2.20;71.20;;;;;;5071931;28;20461;-70
2023/12/27 03:36:25;;;;;;;6.97;2.45;;;2.20;71.10;;;;;;5070697;28;20496;-70
2023/12/27 03:38:51;;;;;;;;;;;2.20;71.10;;;;;;5069787;28;20040;-70
2023/12/27 03:41:17;;;;;;;2.45;1.35;;;2.20;70.50;;;;;;5070005;28;19924;-70
2023/12/27 03:43:43;;;;;;;6.65;2.72;;;2.20;71.40;;;;;;5072247;28;20040;-70
2023/12/27 03:46:10;;;;;;;3.67;2.42;;;2.20;71.50;;;;;;5070794;28;20074;-70
2023/12/27 03:48:36;;;;;;;3.63;2.33;;;2.20;71.40;;;;;;5069697;28;20515;-71
2023/12/27 03:51:03;;;;;;;9.10;3.28;;;2.20;71.60;;;;;;5066082;28;20477;-70
2023/12/27 03:53:29;;;;;;;3.15;1.63;;;2.10;71.50;;;;;;5070033;28;20048;-70
2023/12/27 03:55:55;;;;;;;2.53;1.33;;;2.20;71.70;;;;;;5051914;28;20040;-70
2023/12/27 03:58:21;;;;;;;3.33;2.03;;;2.20;71.70;;;;;;5070865;28;20037;-70
2023/12/27 04:00:47;;;;;;;1.85;0.93;;;2.20;71.80;;;;;;5073610;28;20922;-71
2023/12/27 04:03:14;;;;;;;1.45;0.90;;;2.10;71.80;;;;;;5074945;28;20041;-70
2023/12/27 04:05:40;;;;;;;2.65;1.30;;;2.10;72.00;;;;;;5074674;28;20033;-71
2023/12/27 04:08:06;;;;;;;4.40;1.65;;;2.10;71.80;;;;;;5075577;28;20052;-70
2023/12/27 04:10:32;;;;;;;3.20;1.50;;;2.10;71.80;;;;;;5069842;28;20436;-71
2023/12/27 04:12:58;;;;;;;2.72;1.63;;;2.20;71.90;;;;;;5073472;28;20058;-70
2023/12/27 04:15:25;;;;;;;5.18;1.98;;;2.20;71.70;;;;;;5074203;28;20537;-71
2023/12/27 04:17:51;;;;;;;15.23;2.40;;;2.20;71.70;;;;;;5074713;28;20359;-70
2023/12/27 04:20:17;;;;;;;3.90;1.48;;;2.20;72.00;;;;;;5075207;28;20064;-71
2023/12/27 04:22:43;;;;;;;1.88;1.05;;;2.20;72.00;;;;;;5073992;28;20028;-71
2023/12/27 04:25:09;;;;;;;1.00;0.60;;;2.20;72.30;;;;;;5070460;28;20033;-71
2023/12/27 04:27:35;;;;;;;3.05;2.50;;;2.10;72.50;;;;;;5068403;28;20036;-70
2023/12/27 04:30:01;;;;;;;1.73;1.05;;;2.20;72.50;;;;;;5073208;28;20052;-70
2023/12/27 04:32:27;;;;;;;4.22;1.85;;;2.30;72.70;;;;;;5074880;28;20059;-70
2023/12/27 04:34:53;;;;;;;2.90;1.75;;;2.30;72.70;;;;;;5076038;28;20401;-70
2023/12/27 04:37:19;;;;;;;2.20;0.95;;;2.30;73.50;;;;;;5073518;28;20049;-71
2023/12/27 04:39:45;;;;;;;5.68;1.63;;;2.20;72.70;;;;;;5069949;28;20033;-71
2023/12/27 04:42:11;;;;;;;2.35;1.80;;;2.20;72.60;;;;;;5072112;28;20379;-71
2023/12/27 04:44:37;;;;;;;1.33;0.82;;;2.20;72.70;;;;;;5071022;28;20047;-70
2023/12/27 04:47:04;;;;;;;2.83;1.80;;;2.20;72.80;;;;;;5073973;28;20043;-70
2023/12/27 04:49:30;;;;;;;6.22;2.78;;;2.30;72.50;;;;;;5075603;28;20440;-71
2023/12/27 04:51:56;;;;;;;4.13;2.92;;;2.30;73.50;;;;;;5074687;28;20033;-71
2023/12/27 04:54:22;;;;;;;2.72;1.60;;;2.30;73.60;;;;;;5074037;28;20067;-70
2023/12/27 04:56:48;;;;;;;5.40;4.40;;;2.30;73.50;;;;;;5074677;28;20028;-70
2023/12/27 04:59:14;;;;;;;7.60;3.20;;;2.30;73.50;;;;;;5073318;28;20111;-70
2023/12/27 05:01:40;;;;;;;2.50;1.38;;;2.30;73.50;;;;;;5054948;28;20028;-70
2023/12/27 05:04:07;;;;;;;2.17;1.27;;;2.30;73.30;;;;;;5075182;28;20448;-70
2023/12/27 05:06:33;;;;;;;3.28;1.42;;;2.30;72.60;;;;;;5073390;28;20045;-71
2023/12/27 05:09:03;;;;;;;4.00;1.67;;;2.20;72.10;;;;;;5073635;28;20550;-70
2023/12/27 05:11:29;;;;;;;3.60;2.30;;;2.20;72.40;;;;;;5072279;28;20095;-70
2023/12/27 05:13:55;;;;;;;3.50;2.70;;;2.20;72.50;;;;;;5045820;28;20119;-70
2023/12/27 05:16:22;;;;;;;1.95;1.48;;;2.20;72.40;;;;;;5056034;28;20040;-70
2023/12/27 05:18:48;;;;;;;4.20;2.83;;;2.20;72.40;;;;;;5072199;28;20040;-72
2023/12/27 05:21:18;;;;;;;2.97;1.83;;;2.10;72.30;;;;;;5072849;28;20040;-71
2023/12/27 05:23:44;;;;;;;7.10;3.20;;;2.10;72.30;;;;;;5073244;28;20045;-70
2023/12/27 05:26:10;;;;;;;1.67;0.95;;;2.20;72.50;;;;;;5056529;28;20032;-69
2023/12/27 05:28:36;;;;;;;;;;;2.20;72.10;;;;;;5071617;28;20535;-70
2023/12/27 05:31:02;;;;;;;3.10;1.45;;;2.30;72.00;;;;;;5072278;28;19920;-71
2023/12/27 05:33:28;;;;;;;2.60;1.23;;;2.30;71.80;;;;;;5069276;28;20041;-71
2023/12/27 05:35:54;;;;;;;1.85;1.52;;;2.30;71.60;;;;;;5070792;28;20032;-71
2023/12/27 05:38:21;;;;;;;2.97;1.70;;;2.20;71.30;;;;;;5073167;28;20037;-70
2023/12/27 05:40:47;;;;;;;1.38;0.77;;;2.10;71.20;;;;;;5073739;28;20514;-70
2023/12/27 05:43:13;;;;;;;6.57;2.60;;;2.10;71.10;;;;;;5071710;28;20029;-70
2023/12/27 05:45:39;;;;;;;2.05;1.30;;;2.00;70.90;;;;;;5068000;28;20032;-70
2023/12/27 05:48:06;;;;;;;2.80;0.90;;;1.90;70.80;;;;;;5072598;28;20082;-71
2023/12/27 05:50:32;;;;;;;2.47;1.73;;;1.90;70.40;;;;;;5069521;28;20439;-70
2023/12/27 05:52:58;;;;;;;3.65;1.42;;;1.90;71.20;;;;;;5073793;28;20028;-71
2023/12/27 05:55:24;;;;;;;2.92;1.58;;;2.00;71.30;;;;;;5074064;28;20040;-70
2023/12/27 05:57:50;;;;;;;2.08;1.33;;;2.00;71.20;;;;;;5072887;28;20031;-71
2023/12/27 06:00:16;;;;;;;5.45;1.60;;;2.00;71.30;;;;;;5054862;28;20037;-70
2023/12/27 06:02:43;;;;;;;3.05;1.75;;;2.00;70.90;;;;;;5073681;28;20039;-71
2023/12/27 06:05:09;;;;;;;1.98;1.15;;;2.00;71.60;;;;;;5067693;28;20375;-70
2023/12/27 06:07:36;;;;;;;1.00;0.73;;;1.90;71.40;;;;;;5070669;28;20038;-71
2023/12/27 06:10:05;;;;;;;1.73;1.15;;;2.00;70.80;;;;;;5072086;28;20110;-70
2023/12/27 06:12:31;;;;;;;2.33;1.63;;;2.00;71.30;;;;;;5072276;28;20060;-70
2023/12/27 06:14:58;;;;;;;2.17;1.10;;;2.10;71.50;;;;;;5074018;28;20066;-71
2023/12/27 06:17:25;;;;;;;1.80;1.13;;;2.10;71.50;;;;;;5071924;28;20098;-70
2023/12/27 06:19:51;;;;;;;2.03;1.13;;;2.20;71.80;;;;;;5073519;28;20044;-70
2023/12/27 06:22:17;;;;;;;3.92;2.00;;;2.20;71.70;;;;;;5071737;28;20028;-70
2023/12/27 06:24:43;;;;;;;1.75;1.10;;;2.20;71.60;;;;;;5071606;28;20043;-70
2023/12/27 06:27:10;;;;;;;2.95;1.30;;;2.30;71.50;;;;;;5072008;28;20379;-70
2023/12/27 06:29:36;;;;;;;1.30;0.98;;;2.20;71.40;;;;;;5073704;28;20036;-71
2023/12/27 06:32:03;;;;;;;2.42;1.80;;;2.30;71.50;;;;;;5072731;28;20070;-71
2023/12/27 06:34:29;;;;;;;3.33;1.73;;;2.20;71.00;;;;;;5072215;28;20390;-70
2023/12/27 06:36:55;;;;;;;1.35;0.90;;;2.20;71.50;;;;;;5072496;28;20083;-71
2023/12/27 06:39:21;;;;;;;7.28;1.92;;;2.20;71.70;;;;;;5067852;28;20044;-70
2023/12/27 06:41:47;;;;;;;2.42;1.02;;;2.20;71.70;;;;;;5069967;28;20036;-71
2023/12/27 06:44:13;;;;;;;5.68;3.30;;;2.30;71.70;;;;;;5071760;28;20047;-71
2023/12/27 06:46:39;;;;;;;4.97;1.90;;;2.30;71.60;;;;;;5055056;28;20048;-70
2023/12/27 06:49:06;;;;;;;2.05;1.00;;;2.40;71.50;;;;;;5070855;28;20048;-70
2023/12/27 06:51:32;;;;;;;2.58;1.50;;;2.40;71.50;;;;;;5071914;28;20024;-71
2023/12/27 06:53:58;;;;;;;10.32;2.38;;;2.50;71.80;;;;;;5050292;28;20029;-71
2023/12/27 06:56:24;;;;;;;4.45;2.50;;;2.50;72.10;;;;;;5067939;28;20355;-70
2023/12/27 06:58:50;;;;;;;3.67;2.42;;;2.50;72.10;;;;;;5072876;28;20359;-71
2023/12/27 07:01:16;;;;;;;3.72;1.88;;;2.60;71.90;;;;;;5054175;28;20567;-71
2023/12/27 07:03:42;;;;;;;4.32;2.53;;;2.60;72.30;;;;;;5071393;28;20041;-70
2023/12/27 07:06:08;;;;;;;6.00;2.45;;;2.70;71.90;;;;;;5070876;28;20053;-71
2023/12/27 07:08:35;;;;;;;4.00;2.20;;;2.70;71.70;;;;;;5067666;28;20446;-70
2023/12/27 07:11:01;;;;;;;2.05;1.38;;;2.70;71.40;;;;;;5069131;28;20390;-71
2023/12/27 07:13:27;;;;;;;5.53;1.95;;;2.70;71.20;;;;;;5069806;28;20051;-70
2023/12/27 07:15:53;;;;;;;6.60;2.33;;;2.80;70.80;;;;;;5071073;28;20489;-71
2023/12/27 07:18:20;;;;;;;6.15;3.78;;;2.90;71.10;;;;;;5071248;28;20037;-71
2023/12/27 07:20:46;;;;;;;9.27;3.75;;;2.90;71.10;;;;;;5071830;28;20049;-71
2023/12/27 07:23:12;;;;;;;;;;;3.00;71.10;;;;;;5070447;28;20079;-70
2023/12/27 07:25:38;;;;;;;7.65;3.22;;;3.20;71.00;;;;;;5066022;28;20362;-71
2023/12/27 07:28:05;;;;;;;6.43;4.10;;;3.20;70.90;;;;;;5066875;28;20043;-70
2023/12/27 07:30:31;;;;;;;14.07;3.22;;;3.30;70.50;;;;;;5068941;28;20043;-70
2023/12/27 07:32:57;;;;;;;6.35;2.92;;;3.40;71.10;;;;;;5069152;28;20082;-71
2023/12/27 07:35:23;;;;;;;5.22;2.35;;;3.50;71.00;;;;;;5067538;28;20440;-70
2023/12/27 07:37:50;;;;;;;5.55;3.58;;;3.50;70.70;;;;;;5068929;28;20509;-71
2023/12/27 07:40:16;;;;;;;8.20;3.42;;;3.60;70.30;;;;;;5069604;28;20036;-71
2023/12/27 07:42:43;;;;;;;5.18;2.33;;;3.60;70.00;;;;;;5066660;28;20047;-70
2023/12/27 07:45:10;;;;;;;3.95;1.77;;;3.70;69.30;;;;;;5070463;28;20037;-69
2023/12/27 07:47:36;;;;;;;9.52;4.35;;;3.80;69.70;;;;;;5069817;28;20401;-70
2023/12/27 07:50:02;;;;;;;4.18;2.33;;;4.00;69.60;;;;;;5072440;28;20116;-70
2023/12/27 07:52:28;;;;;;;;;;;4.10;69.50;;;;;;5070890;28;20044;-71
2023/12/27 07:54:54;;;;;;;6.00;2.33;;;4.10;69.30;;;;;;5069992;28;19931;-70
2023/12/27 07:57:21;;;;;;;7.75;2.72;;;4.20;68.90;;;;;;5066508;28;20040;-71
2023/12/27 07:59:51;;;;;;;8.60;3.53;;;4.30;68.70;;;;;;5071182;28;20032;-70
2023/12/27 08:02:18;;;;;;;7.45;4.00;;;4.40;68.50;;;;;;5069221;28;20048;-70
2023/12/27 08:04:44;;;;;;;9.73;5.20;;;4.50;68.40;;;;;;5070840;28;20037;-71
2023/12/27 08:07:10;;;;;;;11.35;2.15;;;4.50;68.40;;;;;;5071783;28;20048;-70
2023/12/27 08:09:36;;;;;;;18.63;4.53;;;4.40;68.60;;;;;;5069512;28;20041;-70
2023/12/27 08:12:03;;;;;;;7.03;4.40;;;4.30;69.10;;;;;;5065531;28;20033;-70
2023/12/27 08:14:29;;;;;;;9.15;4.43;;;4.30;68.70;;;;;;5045358;28;20035;-71
2023/12/27 08:16:55;;;;;;;8.48;4.47;;;4.10;69.50;;;;;;5066516;28;20101;-71
2023/12/27 08:19:21;;;;;;;;;;;4.10;69.60;;;;;;5070764;28;20043;-71
2023/12/27 08:21:47;;;;;;;9.10;4.45;;;4.10;69.80;;;;;;5071039;28;20007;-70
2023/12/27 08:24:13;;;;;;;8.75;5.45;;;4.10;69.90;;;;;;5070621;28;20044;-70
2023/12/27 08:26:39;;;;;;;6.80;4.32;;;4.00;70.00;;;;;;5070375;28;20029;-70
2023/12/27 08:29:05;;;;;;;8.52;5.03;;;4.10;70.10;;;;;;5053204;28;20113;-70
2023/12/27 08:31:31;;;;;;;6.90;4.20;;;4.20;70.00;;;;;;5070649;28;20033;-71
2023/12/27 08:33:59;;;;;;;5.00;3.05;;;4.20;69.80;;;;;;5068761;28;20036;-70
2023/12/27 08:36:45;;;;;;;8.60;4.88;;;4.30;69.90;;;;;;5053807;28;20028;-70
2023/12/27 08:39:12;;;;;;;12.43;6.72;;;4.40;69.70;;;;;;5070163;28;20063;-70
2023/12/27 08:41:38;;;;;;;8.15;5.53;;;4.50;69.50;;;;;;5070777;28;20115;-70
2023/12/27 08:44:04;;;;;;;;;;;4.60;69.70;;;;;;5070952;28;20094;-71
2023/12/27 08:46:30;;;;;;;7.18;4.10;;;4.80;69.60;;;;;;5071933;28;20003;-71
2023/12/27 08:48:56;;;;;;;13.05;7.13;;;4.90;69.60;;;;;;5053176;28;20032;-71
2023/12/27 08:51:22;;;;;;;12.00;8.43;;;5.00;69.70;;;;;;5071549;28;20044;-70
2023/12/27 08:53:48;;;;;;;23.13;7.72;;;5.10;70.80;;;;;;5073728;28;20090;-71
2023/12/27 08:56:14;;;;;;;21.33;10.13;;;5.30;70.80;;;;;;5073810;28;20033;-71
2023/12/27 08:58:40;;;;;;;;;;;5.40;70.60;;;;;;5073504;28;20491;-71
2023/12/27 09:01:07;;;;;;;20.23;9.15;;;5.60;70.60;;;;;;5068150;28;19930;-71
2023/12/27 09:03:33;;;;;;;;;;;5.70;70.50;;;;;;5057650;28;20046;-70
2023/12/27 09:05:59;;;;;;;9.23;5.68;;;6.30;70.10;;;;;;5073280;28;20003;-71
2023/12/27 09:08:25;;;;;;;11.50;6.60;;;8.10;65.30;;;;;;5057100;28;20094;-71
2023/12/27 09:10:51;;;;;;;8.18;5.78;;;10.10;59.10;;;;;;5072374;28;20029;-70
2023/12/27 09:13:17;;;;;;;14.73;7.80;;;10.40;57.30;;;;;;5073410;28;20489;-71
2023/12/27 09:15:43;;;;;;;16.58;7.10;;;10.30;58.40;;;;;;5074741;28;20037;-70
2023/12/27 09:18:09;;;;;;;11.45;6.30;;;10.50;58.40;;;;;;5073687;28;20036;-71
2023/12/27 09:20:35;;;;;;;7.38;4.72;;;11.00;57.60;;;;;;5074161;28;20032;-71
2023/12/27 09:23:01;;;;;;;1.65;1.35;;;11.60;56.00;;;;;;5056199;28;20012;-70
2023/12/27 09:25:29;;;;;;;2.92;1.88;;;12.50;54.10;;;;;;5072714;28;20037;-70
2023/12/27 09:27:55;;;;;;;4.50;2.83;;;12.30;54.00;;;;;;5071275;28;20029;-71
2023/12/27 09:30:21;;;;;;;4.65;2.97;;;11.80;55.40;;;;;;5073737;28;20041;-71
2023/12/27 09:32:48;;;;;;;5.65;2.33;;;11.30;57.90;;;;;;5073114;28;20032;-71
2023/12/27 09:35:14;;;;;;;2.72;1.80;;;11.50;57.90;;;;;;5074157;28;20131;-70
2023/12/27 09:37:40;;;;;;;2.85;1.60;;;11.60;57.00;;;;;;5070687;28;20048;-72
2023/12/27 09:40:08;;;;;;;3.97;2.33;;;11.40;57.50;;;;;;5052485;28;20045;-71
2023/12/27 09:42:37;;;;;;;2.08;1.65;;;11.30;57.50;;;;;;5054136;28;20056;-71
2023/12/27 09:45:05;;;;;;;3.30;2.15;;;11.60;57.10;;;;;;5069698;28;20124;-71
2023/12/27 09:47:32;;;;;;;4.38;3.03;;;12.20;55.40;;;;;;5061009;28;20027;-71
2023/12/27 09:50:00;;;;;;;4.75;2.80;;;12.80;53.90;;;;;;5069363;28;20033;-70
2023/12/27 09:52:29;;;;;;;3.47;2.30;;;13.10;52.20;;;;;;5072792;28;20383;-71
2023/12/27 09:54:55;;;;;;;2.42;1.88;;;12.90;52.80;;;;;;5056127;28;20127;-71
2023/12/27 09:57:22;;;;;;;9.35;5.68;;;12.80;53.10;;;;;;5055620;28;20036;-71
2023/12/27 09:59:53;;;;;;;2.63;1.58;;;13.00;52.60;;;;;;5072563;28;20375;-70
2023/12/27 10:02:20;;;;;;;3.00;1.92;;;13.00;52.90;;;;;;5045379;28;20040;-71
2023/12/27 10:05:14;;;;;;;4.63;1.83;;;12.80;53.60;;;;;;5067642;28;20058;-71
2023/12/27 10:07:41;;;;;;;4.03;2.45;;;13.10;53.80;;;;;;5069072;28;20041;-71
2023/12/27 10:10:10;;;;;;;1.45;1.15;;;14.30;50.90;;;;;;5051767;28;20116;-70
2023/12/27 10:12:37;;;;;;;6.70;3.10;;;14.80;47.60;;;;;;5052578;28;20399;-70
2023/12/27 10:15:08;;;;;;;3.50;1.90;;;14.60;48.40;;;;;;5061847;28;20059;-71
2023/12/27 10:17:34;;;;;;;1.85;0.80;;;14.30;49.00;;;;;;5067627;28;20047;-70
2023/12/27 10:20:00;;;;;;;;;;;15.20;47.10;;;;;;5068954;28;20024;-70
2023/12/27 10:22:29;;;;;;;2.17;1.67;;;16.00;45.90;;;;;;5071863;28;20415;-71
2023/12/27 10:24:56;;;;;;;1.80;1.10;;;15.90;44.20;;;;;;5072604;28;20040;-71
2023/12/27 10:27:22;;;;;;;6.32;1.95;;;15.80;45.10;;;;;;5073625;28;20031;-70
2023/12/27 10:29:48;;;;;;;;;;;15.80;45.60;;;;;;5074261;28;20044;-71
2023/12/27 10:32:19;;;;;;;4.85;1.60;;;15.70;46.60;;;;;;5070832;28;20293;-71
2023/12/27 10:35:04;;;;;;;5.85;2.40;;;15.60;46.50;;;;;;5073057;28;20039;-71
2023/12/27 10:37:31;;;;;;;2.85;1.88;;;15.80;45.10;;;;;;5072831;28;20052;-70
2023/12/27 10:39:58;;;;;;;4.95;2.97;;;15.30;47.50;;;;;;5071097;28;20533;-70
2023/12/27 10:42:28;;;;;;;2.92;1.65;;;15.60;46.20;;;;;;5071334;28;20054;-70
2023/12/27 10:44:54;;;;;;;3.53;1.85;;;15.60;45.90;;;;;;5072914;28;20063;-71
2023/12/27 10:47:21;;;;;;;2.45;1.33;;;15.40;46.60;;;;;;5071872;28;20036;-71
2023/12/27 10:49:48;;;;;;;2.72;2.40;;;15.40;47.30;;;;;;5062001;28;20374;-70
2023/12/27 10:52:17;;;;;;;1.75;1.08;;;15.30;47.90;;;;;;5071666;28;20044;-71
2023/12/27 10:54:46;;;;;;;2.95;1.75;;;15.90;47.30;;;;;;5059931;28;20035;-71
2023/12/27 10:57:32;;;;;;;3.50;2.47;;;17.60;42.80;;;;;;5071563;28;20390;-71
2023/12/27 11:00:00;;;;;;;8.77;4.55;;;17.70;41.40;;;;;;5071660;28;20563;-70
2023/12/27 11:02:28;;;;;;;5.10;2.17;;;17.40;42.10;;;;;;5072142;28;20037;-70
2023/12/27 11:04:55;;;;;;;2.33;1.70;;;18.60;39.90;;;;;;5071302;28;20033;-70
2023/12/27 11:07:24;;;;;;;2.15;1.25;;;20.30;36.50;;;;;;5071479;28;20048;-71
2023/12/27 11:09:55;;;;;;;3.92;2.17;;;21.20;34.40;;;;;;5053977;28;20024;-70
2023/12/27 11:12:24;;;;;;;3.53;2.20;;;21.50;33.80;;;;;;5066506;28;20117;-71
2023/12/27 11:14:51;;;;;;;3.33;1.65;;;21.30;33.90;;;;;;5071314;28;20083;-71
2023/12/27 11:17:20;;;;;;;2.90;1.85;;;20.00;35.80;;;;;;5071010;28;20485;-70
2023/12/27 11:19:47;;;;;;;2.45;1.40;;;20.10;36.70;;;;;;5072626;28;20115;-70
2023/12/27 11:22:13;;;;;;;3.33;1.50;;;20.20;35.10;;;;;;5060227;28;20619;-70
2023/12/27 11:24:39;;;;;;;1.75;0.90;;;19.80;36.30;;;;;;5069819;28;20060;-71
2023/12/27 11:27:06;;;;;;;;;;;19.30;36.90;;;;;;5069807;28;20035;-71
2023/12/27 11:29:34;;;;;;;3.85;1.70;;;18.50;38.50;;;;;;5071269;28;20284;-71
2023/12/27 11:32:00;;;;;;;4.20;2.40;;;18.50;39.30;;;;;;5070328;28;20033;-70
2023/12/27 11:34:26;;;;;;;;;;;19.40;37.40;;;;;;5071867;28;20052;-70
2023/12/27 11:36:54;;;;;;;1.85;1.25;;;19.20;37.10;;;;;;5068191;28;19920;-70
2023/12/27 11:39:25;;;;;;;5.53;2.03;;;19.00;37.50;;;;;;5067303;28;20036;-70
2023/12/27 11:41:53;;;;;;;4.10;3.05;;;18.20;38.90;;;;;;5068985;28;20032;-71
2023/12/27 11:44:19;;;;;;;1.85;1.08;;;17.50;40.40;;;;;;5068650;28;20067;-70
2023/12/27 11:46:45;;;;;;;2.38;1.55;;;18.20;39.70;;;;;;5072177;28;20024;-71
2023/12/27 11:49:31;;;;;;;4.55;2.28;;;19.70;36.40;;;;;;5071862;28;20120;-71
2023/12/27 11:51:59;;;;;;;4.88;1.92;;;19.10;36.40;;;;;;5053416;28;20429;-70
2023/12/27 11:54:26;;;;;;;2.70;1.67;;;18.10;38.40;;;;;;5070828;28;20446;-71
2023/12/27 11:56:54;;;;;;;2.42;1.38;;;17.40;39.20;;;;;;5066294;28;20027;-70
2023/12/27 12:02:05;;;;;;;1.40;0.82;;;19.10;36.70;;;;;;5069708;28;20040;-70
2023/12/27 12:04:45;;;;;;;2.20;1.42;;;20.90;33.70;;;;;;5070968;28;20486;-71
2023/12/27 12:07:43;;;;;;;1.13;0.70;;;21.00;33.10;;;;;;5070471;28;20063;-70
2023/12/27 12:10:26;;;;;;;3.88;1.83;;;20.00;34.00;;;;;;5070441;28;20424;-70
2023/12/27 12:12:57;;;;;;;3.08;1.42;;;18.80;36.70;;;;;;5065265;28;20024;-70
2023/12/27 12:15:24;;;;;;;2.28;1.27;;;18.90;36.70;;;;;;5062211;28;20127;-70
2023/12/27 12:17:52;;;;;;;2.05;1.52;;;18.30;37.40;;;;;;5049256;28;20059;-70
2023/12/27 12:20:19;;;;;;;3.05;1.33;;;17.70;39.00;;;;;;5051252;28;20037;-71
2023/12/27 12:22:45;;;;;;;2.20;1.40;;;17.20;39.90;;;;;;5054002;28;20155;-70
2023/12/27 12:25:11;;;;;;;2.13;1.27;;;17.40;39.30;;;;;;5054703;28;20041;-70
2023/12/27 12:27:42;;;;;;;1.10;0.70;;;17.10;39.50;;;;;;5075340;28;20103;-71
2023/12/27 12:30:09;;;;;;;2.55;1.30;;;16.70;40.70;;;;;;5069811;28;20052;-70
2023/12/27 12:32:54;;;;;;;2.05;1.42;;;16.50;41.50;;;;;;5071249;28;20418;-71
2023/12/27 12:35:20;;;;;;;3.45;2.42;;;16.50;42.10;;;;;;5073562;28;20040;-71
2023/12/27 12:37:46;;;;;;;1.35;0.88;;;16.40;41.70;;;;;;5075538;28;20032;-70
2023/12/27 12:40:14;;;;;;;2.47;1.75;;;16.40;42.20;;;;;;5073609;28;20032;-72
2023/12/27 12:42:40;;;;;;;1.23;1.00;;;16.90;41.00;;;;;;5069970;28;20016;-71
2023/12/27 12:45:09;;;;;;;0.75;0.55;;;17.00;40.60;;;;;;5073755;28;20584;-70
2023/12/27 12:47:35;;;;;;;3.55;1.20;;;17.10;40.50;;;;;;5056969;28;20016;-70
2023/12/27 12:50:01;;;;;;;0.85;0.75;;;17.70;39.50;;;;;;5072313;28;20090;-70
2023/12/27 12:52:27;;;;;;;;;;;18.00;38.50;;;;;;5073776;28;20033;-69
2023/12/27 12:54:53;;;;;;;1.80;1.02;;;18.00;38.80;;;;;;5057303;28;19942;-71
2023/12/27 12:57:20;;;;;;;;;;;18.70;36.90;;;;;;5075834;28;20393;-70
2023/12/27 12:59:48;;;;;;;2.58;1.33;;;19.50;35.50;;;;;;5074204;28;19928;-71
2023/12/27 13:02:14;;;;;;;2.42;1.48;;;19.60;34.80;;;;;;5067965;28;20060;-70